map of MUB home
MUB - Airport
Location
City:  Maun, North-West, Botswana
Name:Maun Airport
ICAO:FBMN
IATA:MUB

Details
Type:Airport (Aerodrome, Airfield)
Use:International (customs port of entry)
Latitude:1958'21"S (-19.972563)
Longitude:2325'52"E (23.431086)
Datum:WGS 1984
Elevation:3093 ft (943 m)
Variation:9.26W (WMM2015 magnetic declination)
0.03 annual change
Runways:1
Longest:6562 × 98 ft (2000 × 30 m), paved

Time
Time Zone:UTC+2
Local Time:

Weather
METAR:FBMN 121300Z 36006KT 9999 BKN030 FEW035CB 34/16 Q1011

Related Locations
Nearby:
Farthest:KOA: 12414 mi / 19978 km
Kailua/Kona [Ellison Onizuka Kona Intl at Keahole], Hawaii, HI, US

Find:

   beyond  
but within

Other Information
Maps:
NOTAMs:
Links:
Sources:

  
flag of Botswana   

Sectional Chart

Flight Planning
at skyvector.com

Satellite Image

Google Maps Satellite view

 

Copyright © 2004-2017 Karl L. Swartz. All rights reserved.
The Great Circle Mapper name and logo are trademarks of the Great Circle Mapper.
All other trademarks mentioned herein belong to their respective owners.
Please see credits for attibutions and further copyright information.

  Follow gcmap on Facebook Follow gcmap on Twitter Follow gcmap on Google+ GCmap on LinkedIn

hCard Microformat

Geo Microformat